sensor_id;sensor_type;location;lat;lon;timestamp;temperature;humidity
23188;DHT22;11762;59.878;17.686;2023-07-22T00:00:08;12.00;99.90
23188;DHT22;11762;59.878;17.686;2023-07-22T00:02:39;12.00;99.90
23188;DHT22;11762;59.878;17.686;2023-07-22T00:05:08;12.00;99.90
23188;DHT22;11762;59.878;17.686;2023-07-22T00:07:35;12.00;99.90
23188;DHT22;11762;59.878;17.686;2023-07-22T00:10:03;12.00;99.90
23188;DHT22;11762;59.878;17.686;2023-07-22T00:12:32;11.90;99.90
23188;DHT22;11762;59.878;17.686;2023-07-22T00:15:00;11.90;99.90
23188;DHT22;11762;59.878;17.686;2023-07-22T00:17:27;11.90;99.90
23188;DHT22;11762;59.878;17.686;2023-07-22T00:19:55;11.80;99.90
23188;DHT22;11762;59.878;17.686;2023-07-22T00:22:22;11.80;99.90
23188;DHT22;11762;59.878;17.686;2023-07-22T00:24:49;11.80;99.90
23188;DHT22;11762;59.878;17.686;2023-07-22T00:27:16;11.70;99.90
23188;DHT22;11762;59.878;17.686;2023-07-22T00:29:45;11.80;99.90
23188;DHT22;11762;59.878;17.686;2023-07-22T00:32:12;11.70;99.90
23188;DHT22;11762;59.878;17.686;2023-07-22T00:34:39;11.70;99.90
23188;DHT22;11762;59.878;17.686;2023-07-22T00:37:07;11.60;99.90
23188;DHT22;11762;59.878;17.686;2023-07-22T00:39:34;11.60;99.90
23188;DHT22;11762;59.878;17.686;2023-07-22T00:42:01;11.60;99.90
23188;DHT22;11762;59.878;17.686;2023-07-22T00:44:28;11.60;99.90
23188;DHT22;11762;59.878;17.686;2023-07-22T00:46:57;11.60;99.90
23188;DHT22;11762;59.878;17.686;2023-07-22T00:49:26;11.50;99.90
23188;DHT22;11762;59.878;17.686;2023-07-22T00:51:55;11.50;99.90
23188;DHT22;11762;59.878;17.686;2023-07-22T00:54:23;11.60;99.90
23188;DHT22;11762;59.878;17.686;2023-07-22T00:56:50;11.50;99.90
23188;DHT22;11762;59.878;17.686;2023-07-22T00:59:18;11.50;99.90
23188;DHT22;11762;59.878;17.686;2023-07-22T01:01:45;11.50;99.90
23188;DHT22;11762;59.878;17.686;2023-07-22T01:04:15;11.50;99.90
23188;DHT22;11762;59.878;17.686;2023-07-22T01:06:46;11.50;99.90
23188;DHT22;11762;59.878;17.686;2023-07-22T01:09:14;11.40;99.90
23188;DHT22;11762;59.878;17.686;2023-07-22T01:11:40;11.40;99.90
23188;DHT22;11762;59.878;17.686;2023-07-22T01:14:09;11.40;99.90
23188;DHT22;11762;59.878;17.686;2023-07-22T01:16:37;11.40;99.90
23188;DHT22;11762;59.878;17.686;2023-07-22T01:19:05;11.30;99.90
23188;DHT22;11762;59.878;17.686;2023-07-22T01:21:36;11.30;99.90
23188;DHT22;11762;59.878;17.686;2023-07-22T01:24:05;11.30;99.90
23188;DHT22;11762;59.878;17.686;2023-07-22T01:26:33;11.30;99.90
23188;DHT22;11762;59.878;17.686;2023-07-22T01:29:04;11.20;99.90
23188;DHT22;11762;59.878;17.686;2023-07-22T01:31:33;11.20;99.90
23188;DHT22;11762;59.878;17.686;2023-07-22T01:34:00;11.10;99.90
23188;DHT22;11762;59.878;17.686;2023-07-22T01:36:27;11.10;99.90
23188;DHT22;11762;59.878;17.686;2023-07-22T01:38:54;11.10;99.90
23188;DHT22;11762;59.878;17.686;2023-07-22T01:41:23;11.10;99.90
23188;DHT22;11762;59.878;17.686;2023-07-22T01:43:50;11.10;99.90
23188;DHT22;11762;59.878;17.686;2023-07-22T01:46:17;11.10;99.90
23188;DHT22;11762;59.878;17.686;2023-07-22T01:48:44;11.00;99.90
23188;DHT22;11762;59.878;17.686;2023-07-22T01:51:11;11.00;99.90
23188;DHT22;11762;59.878;17.686;2023-07-22T01:53:38;11.00;99.90
23188;DHT22;11762;59.878;17.686;2023-07-22T01:56:05;11.00;99.90
23188;DHT22;11762;59.878;17.686;2023-07-22T01:58:34;11.00;99.90
23188;DHT22;11762;59.878;17.686;2023-07-22T02:01:01;11.00;99.90
23188;DHT22;11762;59.878;17.686;2023-07-22T02:03:28;10.90;99.90
23188;DHT22;11762;59.878;17.686;2023-07-22T02:06:01;11.00;99.90
23188;DHT22;11762;59.878;17.686;2023-07-22T02:08:28;11.00;99.90
23188;DHT22;11762;59.878;17.686;2023-07-22T02:11:00;11.00;99.90
23188;DHT22;11762;59.878;17.686;2023-07-22T02:13:27;10.90;99.90
23188;DHT22;11762;59.878;17.686;2023-07-22T02:15:55;10.90;99.90
23188;DHT22;11762;59.878;17.686;2023-07-22T02:18:23;11.00;99.90
23188;DHT22;11762;59.878;17.686;2023-07-22T02:20:50;11.00;99.90
23188;DHT22;11762;59.878;17.686;2023-07-22T02:23:17;11.00;99.90
23188;DHT22;11762;59.878;17.686;2023-07-22T02:25:45;11.00;99.90
23188;DHT22;11762;59.878;17.686;2023-07-22T02:28:15;11.10;99.90
23188;DHT22;11762;59.878;17.686;2023-07-22T02:30:42;11.20;99.90
23188;DHT22;11762;59.878;17.686;2023-07-22T02:33:11;11.40;99.90
23188;DHT22;11762;59.878;17.686;2023-07-22T02:35:38;11.60;99.90
23188;DHT22;11762;59.878;17.686;2023-07-22T02:38:05;11.80;99.90
23188;DHT22;11762;59.878;17.686;2023-07-22T02:40:34;11.90;99.90
23188;DHT22;11762;59.878;17.686;2023-07-22T02:43:01;12.20;99.90
23188;DHT22;11762;59.878;17.686;2023-07-22T02:45:29;12.40;99.90
23188;DHT22;11762;59.878;17.686;2023-07-22T02:47:56;12.60;99.90
23188;DHT22;11762;59.878;17.686;2023-07-22T02:50:25;12.80;99.90
23188;DHT22;11762;59.878;17.686;2023-07-22T02:52:52;13.00;99.90
23188;DHT22;11762;59.878;17.686;2023-07-22T02:55:19;13.20;99.90
23188;DHT22;11762;59.878;17.686;2023-07-22T02:57:47;13.50;99.90
23188;DHT22;11762;59.878;17.686;2023-07-22T03:00:16;13.60;99.90
23188;DHT22;11762;59.878;17.686;2023-07-22T03:02:49;13.80;99.90
23188;DHT22;11762;59.878;17.686;2023-07-22T03:05:16;14.00;99.90
23188;DHT22;11762;59.878;17.686;2023-07-22T03:07:44;14.30;99.90
23188;DHT22;11762;59.878;17.686;2023-07-22T03:10:12;14.30;99.90
23188;DHT22;11762;59.878;17.686;2023-07-22T03:12:39;14.40;99.90
23188;DHT22;11762;59.878;17.686;2023-07-22T03:15:06;14.30;99.90
23188;DHT22;11762;59.878;17.686;2023-07-22T03:17:34;13.90;99.90
23188;DHT22;11762;59.878;17.686;2023-07-22T03:20:02;13.70;99.90
23188;DHT22;11762;59.878;17.686;2023-07-22T03:22:39;13.60;99.90
23188;DHT22;11762;59.878;17.686;2023-07-22T03:25:08;13.60;99.90
23188;DHT22;11762;59.878;17.686;2023-07-22T03:27:35;13.90;99.90
23188;DHT22;11762;59.878;17.686;2023-07-22T03:30:03;14.20;99.90
23188;DHT22;11762;59.878;17.686;2023-07-22T03:32:30;14.40;99.90
23188;DHT22;11762;59.878;17.686;2023-07-22T03:34:57;14.70;99.90
23188;DHT22;11762;59.878;17.686;2023-07-22T03:37:24;14.80;99.90
23188;DHT22;11762;59.878;17.686;2023-07-22T03:39:51;14.70;99.90
23188;DHT22;11762;59.878;17.686;2023-07-22T03:42:19;14.50;99.90
23188;DHT22;11762;59.878;17.686;2023-07-22T03:44:46;14.40;99.90
23188;DHT22;11762;59.878;17.686;2023-07-22T03:47:13;14.10;99.90
23188;DHT22;11762;59.878;17.686;2023-07-22T03:49:40;14.10;99.90
23188;DHT22;11762;59.878;17.686;2023-07-22T03:52:08;14.00;99.90
23188;DHT22;11762;59.878;17.686;2023-07-22T03:54:35;13.90;99.90
23188;DHT22;11762;59.878;17.686;2023-07-22T03:57:02;13.90;99.90
23188;DHT22;11762;59.878;17.686;2023-07-22T03:59:30;13.80;99.90
23188;DHT22;11762;59.878;17.686;2023-07-22T04:01:57;13.70;99.90
23188;DHT22;11762;59.878;17.686;2023-07-22T04:04:24;13.60;99.90
23188;DHT22;11762;59.878;17.686;2023-07-22T04:06:51;13.60;99.90
23188;DHT22;11762;59.878;17.686;2023-07-22T04:09:19;13.60;99.90
23188;DHT22;11762;59.878;17.686;2023-07-22T04:11:46;13.60;99.90
23188;DHT22;11762;59.878;17.686;2023-07-22T04:14:13;13.70;99.90
23188;DHT22;11762;59.878;17.686;2023-07-22T04:16:41;13.60;99.90
23188;DHT22;11762;59.878;17.686;2023-07-22T04:19:08;13.60;99.90
23188;DHT22;11762;59.878;17.686;2023-07-22T04:21:36;13.60;99.90
23188;DHT22;11762;59.878;17.686;2023-07-22T04:24:03;13.70;99.90
23188;DHT22;11762;59.878;17.686;2023-07-22T04:26:30;13.80;99.90
23188;DHT22;11762;59.878;17.686;2023-07-22T04:28:57;13.70;99.90
23188;DHT22;11762;59.878;17.686;2023-07-22T04:31:24;13.70;99.90
23188;DHT22;11762;59.878;17.686;2023-07-22T04:33:53;13.80;99.90
23188;DHT22;11762;59.878;17.686;2023-07-22T04:36:20;13.90;99.90
23188;DHT22;11762;59.878;17.686;2023-07-22T04:38:47;13.90;99.90
23188;DHT22;11762;59.878;17.686;2023-07-22T04:41:14;14.00;99.90
23188;DHT22;11762;59.878;17.686;2023-07-22T04:43:41;14.10;99.90
23188;DHT22;11762;59.878;17.686;2023-07-22T04:46:08;14.10;99.90
23188;DHT22;11762;59.878;17.686;2023-07-22T04:48:35;14.20;99.90
23188;DHT22;11762;59.878;17.686;2023-07-22T04:51:04;14.30;99.90
23188;DHT22;11762;59.878;17.686;2023-07-22T04:53:31;14.30;99.90
23188;DHT22;11762;59.878;17.686;2023-07-22T04:55:59;14.50;99.90
23188;DHT22;11762;59.878;17.686;2023-07-22T04:58:27;14.60;99.90
23188;DHT22;11762;59.878;17.686;2023-07-22T05:00:54;14.80;99.90
23188;DHT22;11762;59.878;17.686;2023-07-22T05:03:21;14.90;99.90
23188;DHT22;11762;59.878;17.686;2023-07-22T05:05:50;15.10;99.90
23188;DHT22;11762;59.878;17.686;2023-07-22T05:08:19;15.40;99.90
23188;DHT22;11762;59.878;17.686;2023-07-22T05:10:46;16.00;99.90
23188;DHT22;11762;59.878;17.686;2023-07-22T05:13:13;16.90;99.90
23188;DHT22;11762;59.878;17.686;2023-07-22T05:15:40;17.40;99.90
23188;DHT22;11762;59.878;17.686;2023-07-22T05:18:07;17.90;99.90
23188;DHT22;11762;59.878;17.686;2023-07-22T05:20:34;18.40;99.90
23188;DHT22;11762;59.878;17.686;2023-07-22T05:23:02;18.70;99.90
23188;DHT22;11762;59.878;17.686;2023-07-22T05:25:30;19.10;99.90
23188;DHT22;11762;59.878;17.686;2023-07-22T05:27:57;19.60;99.90
23188;DHT22;11762;59.878;17.686;2023-07-22T05:30:24;19.80;99.90
23188;DHT22;11762;59.878;17.686;2023-07-22T05:32:52;19.70;99.90
23188;DHT22;11762;59.878;17.686;2023-07-22T05:35:19;19.90;99.90
23188;DHT22;11762;59.878;17.686;2023-07-22T05:37:46;19.80;99.90
23188;DHT22;11762;59.878;17.686;2023-07-22T05:40:13;19.70;99.90
23188;DHT22;11762;59.878;17.686;2023-07-22T05:42:41;19.70;99.90
23188;DHT22;11762;59.878;17.686;2023-07-22T05:45:09;19.60;99.90
23188;DHT22;11762;59.878;17.686;2023-07-22T05:47:39;19.70;99.90
23188;DHT22;11762;59.878;17.686;2023-07-22T05:50:07;19.80;99.90
23188;DHT22;11762;59.878;17.686;2023-07-22T05:52:34;19.50;99.90
23188;DHT22;11762;59.878;17.686;2023-07-22T05:55:01;19.60;99.90
23188;DHT22;11762;59.878;17.686;2023-07-22T05:57:28;19.80;99.90
23188;DHT22;11762;59.878;17.686;2023-07-22T05:59:56;20.20;99.90
23188;DHT22;11762;59.878;17.686;2023-07-22T06:02:23;20.50;99.90
23188;DHT22;11762;59.878;17.686;2023-07-22T06:04:51;20.50;99.90
23188;DHT22;11762;59.878;17.686;2023-07-22T06:07:17;20.30;99.90
23188;DHT22;11762;59.878;17.686;2023-07-22T06:09:44;20.60;99.90
23188;DHT22;11762;59.878;17.686;2023-07-22T06:12:12;21.00;99.90
23188;DHT22;11762;59.878;17.686;2023-07-22T06:14:39;20.80;99.90
23188;DHT22;11762;59.878;17.686;2023-07-22T06:17:07;20.80;99.90
23188;DHT22;11762;59.878;17.686;2023-07-22T06:19:34;20.60;99.90
23188;DHT22;11762;59.878;17.686;2023-07-22T06:22:01;20.50;99.90
23188;DHT22;11762;59.878;17.686;2023-07-22T06:24:29;20.70;99.90
23188;DHT22;11762;59.878;17.686;2023-07-22T06:26:56;21.00;99.90
23188;DHT22;11762;59.878;17.686;2023-07-22T06:29:23;20.80;99.90
23188;DHT22;11762;59.878;17.686;2023-07-22T06:31:50;20.60;99.90
23188;DHT22;11762;59.878;17.686;2023-07-22T06:34:19;21.10;99.90
23188;DHT22;11762;59.878;17.686;2023-07-22T06:36:46;21.00;99.90
23188;DHT22;11762;59.878;17.686;2023-07-22T06:39:13;21.10;99.90
23188;DHT22;11762;59.878;17.686;2023-07-22T06:41:40;21.30;99.90
23188;DHT22;11762;59.878;17.686;2023-07-22T06:44:07;21.40;99.90
23188;DHT22;11762;59.878;17.686;2023-07-22T06:46:35;21.30;99.90
23188;DHT22;11762;59.878;17.686;2023-07-22T06:49:01;21.20;99.90
23188;DHT22;11762;59.878;17.686;2023-07-22T06:51:30;21.40;99.90
23188;DHT22;11762;59.878;17.686;2023-07-22T06:53:57;21.70;99.90
23188;DHT22;11762;59.878;17.686;2023-07-22T06:56:24;21.50;99.90
23188;DHT22;11762;59.878;17.686;2023-07-22T06:58:52;21.20;99.90
23188;DHT22;11762;59.878;17.686;2023-07-22T07:01:19;21.10;99.90
23188;DHT22;11762;59.878;17.686;2023-07-22T07:03:46;21.50;99.90
23188;DHT22;11762;59.878;17.686;2023-07-22T07:06:13;22.00;99.90
23188;DHT22;11762;59.878;17.686;2023-07-22T07:08:42;22.40;99.90
23188;DHT22;11762;59.878;17.686;2023-07-22T07:11:09;22.30;99.90
23188;DHT22;11762;59.878;17.686;2023-07-22T07:13:36;21.80;99.90
23188;DHT22;11762;59.878;17.686;2023-07-22T07:16:21;21.60;99.90
23188;DHT22;11762;59.878;17.686;2023-07-22T07:18:49;21.80;99.90
23188;DHT22;11762;59.878;17.686;2023-07-22T07:21:16;22.20;99.90
23188;DHT22;11762;59.878;17.686;2023-07-22T07:23:45;22.10;99.90
23188;DHT22;11762;59.878;17.686;2023-07-22T07:26:12;22.00;99.90
23188;DHT22;11762;59.878;17.686;2023-07-22T07:28:39;21.70;99.90
23188;DHT22;11762;59.878;17.686;2023-07-22T07:31:06;21.90;99.90
23188;DHT22;11762;59.878;17.686;2023-07-22T07:33:33;21.80;99.90
23188;DHT22;11762;59.878;17.686;2023-07-22T07:36:01;21.30;99.90
23188;DHT22;11762;59.878;17.686;2023-07-22T07:38:28;20.90;99.90
23188;DHT22;11762;59.878;17.686;2023-07-22T07:40:58;20.40;99.90
23188;DHT22;11762;59.878;17.686;2023-07-22T07:43:26;20.00;99.90
23188;DHT22;11762;59.878;17.686;2023-07-22T07:46:18;19.70;99.90
23188;DHT22;11762;59.878;17.686;2023-07-22T07:48:47;19.60;99.90
23188;DHT22;11762;59.878;17.686;2023-07-22T07:51:15;19.60;99.90
23188;DHT22;11762;59.878;17.686;2023-07-22T07:53:43;19.60;99.90
23188;DHT22;11762;59.878;17.686;2023-07-22T07:56:12;19.40;99.90
23188;DHT22;11762;59.878;17.686;2023-07-22T07:58:39;19.50;99.90
23188;DHT22;11762;59.878;17.686;2023-07-22T08:01:07;19.50;99.90
23188;DHT22;11762;59.878;17.686;2023-07-22T08:03:35;19.50;99.90
23188;DHT22;11762;59.878;17.686;2023-07-22T08:06:02;19.40;99.90
23188;DHT22;11762;59.878;17.686;2023-07-22T08:08:30;19.50;99.90
23188;DHT22;11762;59.878;17.686;2023-07-22T08:11:01;19.60;99.90
23188;DHT22;11762;59.878;17.686;2023-07-22T08:13:30;19.70;99.90
23188;DHT22;11762;59.878;17.686;2023-07-22T08:16:01;19.70;99.90
23188;DHT22;11762;59.878;17.686;2023-07-22T08:18:28;19.80;99.90
23188;DHT22;11762;59.878;17.686;2023-07-22T08:20:56;19.80;99.90
23188;DHT22;11762;59.878;17.686;2023-07-22T08:23:23;19.80;99.90
23188;DHT22;11762;59.878;17.686;2023-07-22T08:25:51;19.90;99.90
23188;DHT22;11762;59.878;17.686;2023-07-22T08:28:18;20.10;99.90
23188;DHT22;11762;59.878;17.686;2023-07-22T08:30:47;20.20;99.90
23188;DHT22;11762;59.878;17.686;2023-07-22T08:33:15;20.40;99.90
23188;DHT22;11762;59.878;17.686;2023-07-22T08:35:42;20.40;99.90
23188;DHT22;11762;59.878;17.686;2023-07-22T08:38:09;20.20;99.90
23188;DHT22;11762;59.878;17.686;2023-07-22T08:40:38;20.20;99.90
23188;DHT22;11762;59.878;17.686;2023-07-22T08:43:07;20.20;99.90
23188;DHT22;11762;59.878;17.686;2023-07-22T08:45:36;19.90;99.90
23188;DHT22;11762;59.878;17.686;2023-07-22T08:48:06;19.80;99.90
23188;DHT22;11762;59.878;17.686;2023-07-22T08:50:40;19.70;99.90
23188;DHT22;11762;59.878;17.686;2023-07-22T08:53:08;19.50;99.90
23188;DHT22;11762;59.878;17.686;2023-07-22T08:55:37;19.30;99.90
23188;DHT22;11762;59.878;17.686;2023-07-22T08:58:07;19.10;99.90
23188;DHT22;11762;59.878;17.686;2023-07-22T09:00:35;18.80;99.90
23188;DHT22;11762;59.878;17.686;2023-07-22T09:03:03;18.70;99.90
23188;DHT22;11762;59.878;17.686;2023-07-22T09:05:32;18.70;99.90
23188;DHT22;11762;59.878;17.686;2023-07-22T09:08:02;18.90;99.90
23188;DHT22;11762;59.878;17.686;2023-07-22T09:10:29;19.30;99.90
23188;DHT22;11762;59.878;17.686;2023-07-22T09:12:57;19.50;99.90
23188;DHT22;11762;59.878;17.686;2023-07-22T09:15:25;19.80;99.90
23188;DHT22;11762;59.878;17.686;2023-07-22T09:17:53;19.80;99.90
23188;DHT22;11762;59.878;17.686;2023-07-22T09:20:22;19.80;99.90
23188;DHT22;11762;59.878;17.686;2023-07-22T09:22:50;20.00;99.90
23188;DHT22;11762;59.878;17.686;2023-07-22T09:25:19;20.10;99.90
23188;DHT22;11762;59.878;17.686;2023-07-22T09:27:47;20.00;99.90
23188;DHT22;11762;59.878;17.686;2023-07-22T09:30:25;20.10;99.90
23188;DHT22;11762;59.878;17.686;2023-07-22T09:32:53;20.20;99.90
23188;DHT22;11762;59.878;17.686;2023-07-22T09:35:23;20.20;99.90
23188;DHT22;11762;59.878;17.686;2023-07-22T09:37:50;20.00;99.90
23188;DHT22;11762;59.878;17.686;2023-07-22T09:40:20;19.50;99.90
23188;DHT22;11762;59.878;17.686;2023-07-22T09:42:48;19.70;99.90
23188;DHT22;11762;59.878;17.686;2023-07-22T09:45:16;19.90;99.90
23188;DHT22;11762;59.878;17.686;2023-07-22T09:47:46;20.00;99.90
23188;DHT22;11762;59.878;17.686;2023-07-22T09:50:18;20.10;99.90
23188;DHT22;11762;59.878;17.686;2023-07-22T09:52:48;20.20;99.90
23188;DHT22;11762;59.878;17.686;2023-07-22T09:55:16;20.30;99.90
23188;DHT22;11762;59.878;17.686;2023-07-22T09:57:46;20.30;99.90
23188;DHT22;11762;59.878;17.686;2023-07-22T10:00:14;20.40;99.90
23188;DHT22;11762;59.878;17.686;2023-07-22T10:02:43;20.20;99.90
23188;DHT22;11762;59.878;17.686;2023-07-22T10:05:13;20.20;99.90
23188;DHT22;11762;59.878;17.686;2023-07-22T10:07:44;19.70;99.90
23188;DHT22;11762;59.878;17.686;2023-07-22T10:10:15;19.80;99.90
23188;DHT22;11762;59.878;17.686;2023-07-22T10:12:43;20.00;99.90
23188;DHT22;11762;59.878;17.686;2023-07-22T10:15:11;20.20;99.90
23188;DHT22;11762;59.878;17.686;2023-07-22T10:17:39;20.20;99.90
23188;DHT22;11762;59.878;17.686;2023-07-22T10:20:07;20.40;99.90
23188;DHT22;11762;59.878;17.686;2023-07-22T10:22:37;20.60;99.90
23188;DHT22;11762;59.878;17.686;2023-07-22T10:25:04;20.80;99.90
23188;DHT22;11762;59.878;17.686;2023-07-22T10:27:34;20.80;99.90
23188;DHT22;11762;59.878;17.686;2023-07-22T10:30:02;21.00;99.90
23188;DHT22;11762;59.878;17.686;2023-07-22T10:32:34;21.10;99.90
23188;DHT22;11762;59.878;17.686;2023-07-22T10:35:01;21.20;99.90
23188;DHT22;11762;59.878;17.686;2023-07-22T10:37:32;21.30;99.90
23188;DHT22;11762;59.878;17.686;2023-07-22T10:40:01;21.40;99.90
23188;DHT22;11762;59.878;17.686;2023-07-22T10:42:31;21.00;99.90
23188;DHT22;11762;59.878;17.686;2023-07-22T10:45:01;21.20;99.90
23188;DHT22;11762;59.878;17.686;2023-07-22T10:47:33;21.10;99.90
23188;DHT22;11762;59.878;17.686;2023-07-22T10:50:06;21.20;99.90
23188;DHT22;11762;59.878;17.686;2023-07-22T10:52:40;21.30;99.90
23188;DHT22;11762;59.878;17.686;2023-07-22T10:55:17;21.30;99.90
23188;DHT22;11762;59.878;17.686;2023-07-22T10:57:48;21.00;99.90
23188;DHT22;11762;59.878;17.686;2023-07-22T11:00:21;20.80;99.90
23188;DHT22;11762;59.878;17.686;2023-07-22T11:03:09;20.60;99.90
23188;DHT22;11762;59.878;17.686;2023-07-22T11:05:50;20.40;99.90
23188;DHT22;11762;59.878;17.686;2023-07-22T11:08:36;20.20;99.90
23188;DHT22;11762;59.878;17.686;2023-07-22T11:11:04;20.20;99.90
23188;DHT22;11762;59.878;17.686;2023-07-22T11:13:37;20.30;99.90
23188;DHT22;11762;59.878;17.686;2023-07-22T11:16:10;20.40;99.90
23188;DHT22;11762;59.878;17.686;2023-07-22T11:18:37;20.30;99.90
23188;DHT22;11762;59.878;17.686;2023-07-22T11:21:09;20.30;99.90
23188;DHT22;11762;59.878;17.686;2023-07-22T11:23:36;20.20;99.90
23188;DHT22;11762;59.878;17.686;2023-07-22T11:26:03;20.50;99.90
23188;DHT22;11762;59.878;17.686;2023-07-22T11:28:31;20.90;99.90
23188;DHT22;11762;59.878;17.686;2023-07-22T11:30:58;21.20;99.90
23188;DHT22;11762;59.878;17.686;2023-07-22T11:33:37;21.00;99.90
23188;DHT22;11762;59.878;17.686;2023-07-22T11:36:05;20.70;99.90
23188;DHT22;11762;59.878;17.686;2023-07-22T11:38:32;20.50;99.90
23188;DHT22;11762;59.878;17.686;2023-07-22T11:41:01;20.50;99.90
23188;DHT22;11762;59.878;17.686;2023-07-22T11:43:29;20.80;99.90
23188;DHT22;11762;59.878;17.686;2023-07-22T11:45:56;20.70;99.90
23188;DHT22;11762;59.878;17.686;2023-07-22T11:48:23;20.30;99.90
23188;DHT22;11762;59.878;17.686;2023-07-22T11:50:51;20.10;99.90
23188;DHT22;11762;59.878;17.686;2023-07-22T11:53:18;20.00;99.90
23188;DHT22;11762;59.878;17.686;2023-07-22T11:55:45;20.30;99.90
23188;DHT22;11762;59.878;17.686;2023-07-22T11:58:13;20.50;99.90
23188;DHT22;11762;59.878;17.686;2023-07-22T12:00:42;20.80;99.90
23188;DHT22;11762;59.878;17.686;2023-07-22T12:03:10;20.80;99.90
23188;DHT22;11762;59.878;17.686;2023-07-22T12:05:37;21.00;99.90
23188;DHT22;11762;59.878;17.686;2023-07-22T12:08:06;21.00;99.90
23188;DHT22;11762;59.878;17.686;2023-07-22T12:10:33;21.10;99.90
23188;DHT22;11762;59.878;17.686;2023-07-22T12:13:01;21.10;99.90
23188;DHT22;11762;59.878;17.686;2023-07-22T12:15:28;21.00;99.90
23188;DHT22;11762;59.878;17.686;2023-07-22T12:17:56;21.20;99.90
23188;DHT22;11762;59.878;17.686;2023-07-22T12:20:24;21.40;99.90
23188;DHT22;11762;59.878;17.686;2023-07-22T12:22:52;21.40;99.90
23188;DHT22;11762;59.878;17.686;2023-07-22T12:25:21;21.30;99.90
23188;DHT22;11762;59.878;17.686;2023-07-22T12:27:48;20.90;99.90
23188;DHT22;11762;59.878;17.686;2023-07-22T12:30:17;20.80;99.90
23188;DHT22;11762;59.878;17.686;2023-07-22T12:32:44;20.70;99.90
23188;DHT22;11762;59.878;17.686;2023-07-22T12:35:11;20.90;99.90
23188;DHT22;11762;59.878;17.686;2023-07-22T12:37:39;21.10;99.90
23188;DHT22;11762;59.878;17.686;2023-07-22T12:40:07;21.10;99.90
23188;DHT22;11762;59.878;17.686;2023-07-22T12:42:36;20.70;99.90
23188;DHT22;11762;59.878;17.686;2023-07-22T12:45:04;20.60;99.90
23188;DHT22;11762;59.878;17.686;2023-07-22T12:47:31;20.80;99.90
23188;DHT22;11762;59.878;17.686;2023-07-22T12:49:58;20.90;99.90
23188;DHT22;11762;59.878;17.686;2023-07-22T12:52:25;21.10;99.90
23188;DHT22;11762;59.878;17.686;2023-07-22T12:54:52;21.30;99.90
23188;DHT22;11762;59.878;17.686;2023-07-22T12:57:21;21.40;99.90
23188;DHT22;11762;59.878;17.686;2023-07-22T12:59:49;21.60;99.90
23188;DHT22;11762;59.878;17.686;2023-07-22T13:02:16;21.70;99.90
23188;DHT22;11762;59.878;17.686;2023-07-22T13:04:44;21.70;99.90
23188;DHT22;11762;59.878;17.686;2023-07-22T13:07:11;21.70;99.90
23188;DHT22;11762;59.878;17.686;2023-07-22T13:09:54;21.60;99.90
23188;DHT22;11762;59.878;17.686;2023-07-22T13:12:24;21.70;99.90
23188;DHT22;11762;59.878;17.686;2023-07-22T13:14:53;21.50;99.90
23188;DHT22;11762;59.878;17.686;2023-07-22T13:17:20;21.50;99.90
23188;DHT22;11762;59.878;17.686;2023-07-22T13:19:47;21.40;99.90
23188;DHT22;11762;59.878;17.686;2023-07-22T13:22:14;21.30;99.90
23188;DHT22;11762;59.878;17.686;2023-07-22T13:24:41;21.10;99.90
23188;DHT22;11762;59.878;17.686;2023-07-22T13:27:08;21.20;99.90
23188;DHT22;11762;59.878;17.686;2023-07-22T13:29:35;21.20;99.90
23188;DHT22;11762;59.878;17.686;2023-07-22T13:32:04;21.40;99.90
23188;DHT22;11762;59.878;17.686;2023-07-22T13:34:32;21.30;99.90
23188;DHT22;11762;59.878;17.686;2023-07-22T13:36:59;21.30;99.90
23188;DHT22;11762;59.878;17.686;2023-07-22T13:39:28;20.90;99.90
23188;DHT22;11762;59.878;17.686;2023-07-22T13:41:55;20.50;99.90
23188;DHT22;11762;59.878;17.686;2023-07-22T13:44:22;20.30;99.90
23188;DHT22;11762;59.878;17.686;2023-07-22T13:46:49;20.20;99.90
23188;DHT22;11762;59.878;17.686;2023-07-22T13:49:18;20.10;99.90
23188;DHT22;11762;59.878;17.686;2023-07-22T13:51:45;20.20;99.90
23188;DHT22;11762;59.878;17.686;2023-07-22T13:54:12;20.60;99.90
23188;DHT22;11762;59.878;17.686;2023-07-22T13:56:39;20.90;99.90
23188;DHT22;11762;59.878;17.686;2023-07-22T13:59:07;21.10;99.90
23188;DHT22;11762;59.878;17.686;2023-07-22T14:01:34;20.90;99.90
23188;DHT22;11762;59.878;17.686;2023-07-22T14:04:01;20.80;99.90
23188;DHT22;11762;59.878;17.686;2023-07-22T14:06:29;20.80;99.90
23188;DHT22;11762;59.878;17.686;2023-07-22T14:08:57;21.00;99.90
23188;DHT22;11762;59.878;17.686;2023-07-22T14:11:25;21.00;99.90
23188;DHT22;11762;59.878;17.686;2023-07-22T14:13:52;21.10;99.90
23188;DHT22;11762;59.878;17.686;2023-07-22T14:16:19;21.20;99.90
23188;DHT22;11762;59.878;17.686;2023-07-22T14:18:46;21.30;99.90
23188;DHT22;11762;59.878;17.686;2023-07-22T14:21:13;21.40;99.90
23188;DHT22;11762;59.878;17.686;2023-07-22T14:23:42;21.50;99.90
23188;DHT22;11762;59.878;17.686;2023-07-22T14:26:09;21.40;99.90
23188;DHT22;11762;59.878;17.686;2023-07-22T14:28:37;21.20;99.90
23188;DHT22;11762;59.878;17.686;2023-07-22T14:31:03;21.20;99.90
23188;DHT22;11762;59.878;17.686;2023-07-22T14:33:31;21.20;99.90
23188;DHT22;11762;59.878;17.686;2023-07-22T14:35:58;21.40;99.90
23188;DHT22;11762;59.878;17.686;2023-07-22T14:38:26;21.20;99.90
23188;DHT22;11762;59.878;17.686;2023-07-22T14:40:55;21.20;99.90
23188;DHT22;11762;59.878;17.686;2023-07-22T14:43:22;21.20;99.90
23188;DHT22;11762;59.878;17.686;2023-07-22T14:45:49;21.30;99.90
23188;DHT22;11762;59.878;17.686;2023-07-22T14:48:16;21.10;99.90
23188;DHT22;11762;59.878;17.686;2023-07-22T14:50:43;21.00;99.90
23188;DHT22;11762;59.878;17.686;2023-07-22T14:53:10;20.90;99.90
23188;DHT22;11762;59.878;17.686;2023-07-22T14:55:37;20.80;99.90
23188;DHT22;11762;59.878;17.686;2023-07-22T14:58:06;20.70;99.90
23188;DHT22;11762;59.878;17.686;2023-07-22T15:00:33;20.90;99.90
23188;DHT22;11762;59.878;17.686;2023-07-22T15:03:00;21.10;99.90
23188;DHT22;11762;59.878;17.686;2023-07-22T15:05:27;21.30;99.90
23188;DHT22;11762;59.878;17.686;2023-07-22T15:07:54;21.20;99.90
23188;DHT22;11762;59.878;17.686;2023-07-22T15:10:21;21.20;99.90
23188;DHT22;11762;59.878;17.686;2023-07-22T15:12:48;21.00;99.90
23188;DHT22;11762;59.878;17.686;2023-07-22T15:15:17;20.80;99.90
23188;DHT22;11762;59.878;17.686;2023-07-22T15:17:44;20.70;99.90
23188;DHT22;11762;59.878;17.686;2023-07-22T15:20:12;20.70;99.90